createdAt,value
2023-03-15T00:02:17.751Z,3.00
2023-03-15T00:04:45.898Z,3.67
2023-03-15T00:07:14.188Z,2.00
2023-03-15T00:09:42.419Z,4.00
2023-03-15T00:12:12.370Z,3.00
2023-03-15T00:14:40.553Z,3.67
2023-03-15T00:17:08.882Z,2.00
2023-03-15T00:19:37.138Z,3.33
2023-03-15T00:22:05.552Z,5.33
2023-03-15T00:24:33.970Z,3.00
2023-03-15T00:27:02.225Z,2.50
2023-03-15T00:29:30.595Z,5.00
2023-03-15T00:31:58.780Z,5.00
2023-03-15T00:34:26.940Z,4.33
2023-03-15T00:36:55.175Z,4.00
2023-03-15T00:39:25.932Z,5.00
2023-03-15T00:41:57.168Z,5.00
2023-03-15T00:44:25.449Z,3.00
2023-03-15T00:46:53.699Z,3.75
2023-03-15T00:49:21.868Z,3.00
2023-03-15T00:51:50.164Z,4.50
2023-03-15T00:54:18.452Z,2.00
2023-03-15T00:56:46.538Z,2.50
2023-03-15T00:59:14.752Z,2.00
2023-03-15T01:01:45.043Z,3.00
2023-03-15T01:04:13.303Z,3.00
2023-03-15T01:06:42.629Z,4.00
2023-03-15T01:09:10.807Z,4.00
2023-03-15T01:11:39.043Z,3.75
2023-03-15T01:14:09.040Z,4.00
2023-03-15T01:16:37.578Z,4.25
2023-03-15T01:19:05.808Z,2.00
2023-03-15T01:21:33.958Z,6.00
2023-03-15T01:24:02.084Z,3.50
2023-03-15T01:26:30.369Z,3.00
2023-03-15T01:28:58.965Z,4.00
2023-03-15T01:31:30.366Z,2.00
2023-03-15T01:33:59.432Z,3.75
2023-03-15T01:36:27.706Z,3.50
2023-03-15T01:38:56.142Z,3.00
2023-03-15T01:41:25.990Z,1.00
2023-03-15T01:43:54.260Z,3.33
2023-03-15T01:46:35.926Z,3.00
2023-03-15T01:49:08.986Z,4.50
2023-03-15T01:51:42.038Z,2.00
2023-03-15T01:54:25.559Z,0.50
2023-03-15T01:57:09.529Z,4.67
2023-03-15T01:59:55.531Z,2.67
2023-03-15T02:02:25.833Z,2.00
2023-03-15T02:05:02.073Z,1.33
2023-03-15T02:07:34.835Z,2.00
2023-03-15T02:10:12.793Z,1.00
2023-03-15T02:12:43.581Z,2.00
2023-03-15T02:15:12.253Z,3.00
2023-03-15T02:17:45.848Z,4.00
2023-03-15T02:20:38.491Z,2.00
2023-03-15T02:23:12.210Z,3.00
2023-03-15T02:25:49.095Z,1.25
2023-03-15T02:28:18.653Z,3.33
2023-03-15T02:30:47.308Z,3.00
2023-03-15T02:33:29.557Z,2.00
2023-03-15T02:36:22.311Z,1.50
2023-03-15T02:38:51.051Z,2.50
2023-03-15T02:41:24.273Z,4.00
2023-03-15T02:43:55.844Z,5.00
2023-03-15T02:46:24.265Z,2.50
2023-03-15T02:48:54.386Z,2.00
2023-03-15T02:51:28.479Z,2.00
2023-03-15T02:53:56.842Z,1.00
2023-03-15T02:56:25.119Z,3.00
2023-03-15T02:58:53.212Z,2.00
2023-03-15T03:01:21.411Z,2.50
2023-03-15T03:03:49.507Z,2.00
2023-03-15T03:06:18.504Z,3.00
2023-03-15T03:08:47.924Z,2.25
2023-03-15T03:11:16.442Z,2.00
2023-03-15T03:13:44.578Z,2.00
2023-03-15T03:16:12.957Z,4.67
2023-03-15T03:18:42.384Z,0.00
2023-03-15T03:21:10.644Z,2.00
2023-03-15T03:23:38.787Z,2.67
2023-03-15T03:26:16.935Z,4.00
2023-03-15T03:28:46.544Z,4.00
2023-03-15T03:31:19.836Z,3.50
2023-03-15T03:33:48.032Z,4.00
2023-03-15T03:36:16.417Z,1.00
2023-03-15T03:38:46.346Z,1.00
2023-03-15T03:41:15.394Z,2.00
2023-03-15T03:43:43.787Z,2.00
2023-03-15T03:46:12.027Z,1.50
2023-03-15T03:48:40.189Z,2.33
2023-03-15T03:51:08.376Z,4.00
2023-03-15T03:53:36.532Z,2.00
2023-03-15T03:56:06.313Z,2.00
2023-03-15T03:58:34.777Z,2.00
2023-03-15T04:01:04.271Z,3.50
2023-03-15T04:08:41.435Z,3.67
2023-03-15T04:11:09.902Z,2.33
2023-03-15T04:13:38.211Z,2.00
2023-03-15T04:16:07.392Z,1.00
2023-03-15T04:18:35.961Z,2.00
2023-03-15T04:21:04.643Z,2.00
2023-03-15T04:23:34.869Z,2.50
2023-03-15T04:26:03.860Z,1.33
2023-03-15T04:28:32.959Z,2.00
2023-03-15T04:31:02.076Z,5.33
2023-03-15T04:33:32.389Z,1.75
2023-03-15T04:36:03.062Z,2.33
2023-03-15T04:38:32.657Z,2.00
2023-03-15T04:41:01.007Z,3.67
2023-03-15T04:43:29.393Z,2.00
2023-03-15T04:45:57.692Z,2.50
2023-03-15T04:48:25.939Z,2.50
2023-03-15T04:50:54.327Z,4.00
2023-03-15T04:53:22.695Z,1.67
2023-03-15T04:55:51.283Z,3.00
2023-03-15T04:58:20.280Z,2.00
2023-03-15T05:00:49.020Z,3.33
2023-03-15T05:03:17.344Z,2.75
2023-03-15T05:05:46.645Z,5.00
2023-03-15T05:08:14.973Z,6.33
2023-03-15T05:10:43.421Z,4.00
2023-03-15T05:13:11.788Z,6.33
2023-03-15T05:15:40.160Z,6.00
2023-03-15T05:18:08.844Z,7.25
2023-03-15T05:20:37.124Z,3.00
2023-03-15T05:23:05.714Z,5.75
2023-03-15T05:25:35.168Z,6.67
2023-03-15T05:28:05.233Z,7.25
2023-03-15T05:30:33.713Z,9.00
2023-03-15T05:33:05.274Z,7.50
2023-03-15T05:35:33.787Z,5.00
2023-03-15T05:38:03.671Z,10.25
2023-03-15T05:40:33.274Z,4.50
2023-03-15T05:43:01.459Z,5.67
2023-03-15T05:45:29.841Z,5.75
2023-03-15T05:47:58.209Z,5.75
2023-03-15T05:50:28.530Z,5.00
2023-03-15T05:52:57.424Z,3.00
2023-03-15T05:55:25.696Z,4.00
2023-03-15T05:57:54.077Z,1.33
2023-03-15T06:00:22.894Z,4.00
2023-03-15T06:02:51.651Z,5.67
2023-03-15T06:05:19.938Z,9.00
2023-03-15T06:07:48.307Z,3.67
2023-03-15T06:10:17.202Z,6.67
2023-03-15T06:12:45.582Z,7.50
2023-03-15T06:15:13.887Z,5.50
2023-03-15T06:17:42.293Z,5.25
2023-03-15T06:20:11.737Z,8.67
2023-03-15T06:22:40.027Z,10.00
2023-03-15T06:25:09.888Z,4.67
2023-03-15T06:27:38.724Z,11.25
2023-03-15T06:30:07.825Z,7.33
2023-03-15T06:32:36.179Z,6.25
2023-03-15T06:35:05.701Z,9.75
2023-03-15T06:37:36.249Z,1.00
2023-03-15T06:40:10.013Z,10.33
2023-03-15T06:42:39.560Z,9.50
2023-03-15T06:45:10.034Z,7.75
2023-03-15T06:47:38.868Z,6.00
2023-03-15T06:50:07.970Z,7.33
2023-03-15T06:52:36.135Z,9.00
2023-03-15T06:55:05.739Z,10.75
2023-03-15T06:57:33.917Z,10.00
2023-03-15T07:00:02.429Z,9.00
2023-03-15T07:02:34.104Z,8.00
2023-03-15T07:05:02.542Z,7.33
2023-03-15T07:07:31.019Z,8.00
2023-03-15T07:09:59.211Z,6.33
2023-03-15T07:12:27.783Z,9.00
2023-03-15T07:14:56.263Z,7.33
2023-03-15T07:17:24.643Z,9.00
2023-03-15T07:19:56.547Z,8.00
2023-03-15T07:22:26.872Z,7.33
2023-03-15T07:24:55.213Z,10.00
2023-03-15T07:27:23.611Z,8.75
2023-03-15T07:29:52.077Z,9.75
2023-03-15T07:32:21.152Z,9.00
2023-03-15T07:34:49.460Z,4.75
2023-03-15T07:37:17.826Z,10.75
2023-03-15T07:39:46.923Z,10.67
2023-03-15T07:42:15.119Z,13.00
2023-03-15T07:44:43.775Z,10.67
2023-03-15T07:47:12.461Z,9.33
2023-03-15T07:49:40.875Z,8.75
2023-03-15T07:52:09.435Z,8.00
2023-03-15T07:54:37.707Z,7.75
2023-03-15T07:57:06.183Z,7.00
2023-03-15T07:59:34.476Z,8.50
2023-03-15T08:02:03.252Z,7.00
2023-03-15T08:04:32.773Z,6.00
2023-03-15T08:07:02.093Z,7.75
2023-03-15T08:09:33.404Z,8.75
2023-03-15T08:12:02.710Z,5.00
2023-03-15T08:14:32.142Z,7.50
2023-03-15T08:17:00.808Z,6.33
2023-03-15T08:19:29.070Z,5.50
2023-03-15T08:21:57.378Z,5.33
2023-03-15T08:24:26.039Z,7.50
2023-03-15T08:26:54.214Z,10.67
2023-03-15T08:29:22.588Z,10.67
2023-03-15T08:31:51.016Z,11.67
2023-03-15T08:34:19.758Z,9.00
2023-03-15T08:36:48.642Z,7.33
2023-03-15T08:39:17.564Z,6.33
2023-03-15T08:41:47.565Z,7.67
2023-03-15T08:44:15.945Z,6.00
2023-03-15T08:46:44.575Z,6.75
2023-03-15T08:49:12.902Z,6.67
2023-03-15T08:51:41.180Z,7.67
2023-03-15T08:54:09.863Z,8.50
2023-03-15T08:56:38.240Z,6.25
2023-03-15T08:59:06.622Z,8.75
2023-03-15T09:01:35.315Z,7.00
2023-03-15T09:04:03.533Z,6.75
2023-03-15T09:06:32.373Z,7.00
2023-03-15T09:09:00.785Z,8.25
2023-03-15T09:11:29.231Z,10.67
2023-03-15T09:13:57.719Z,7.75
2023-03-15T09:16:26.606Z,3.50
2023-03-15T09:18:54.883Z,6.00
2023-03-15T09:21:25.002Z,6.67
2023-03-15T09:23:53.707Z,7.00
2023-03-15T09:26:23.541Z,6.25
2023-03-15T09:28:51.896Z,9.75
2023-03-15T09:31:20.331Z,7.00
2023-03-15T09:33:49.982Z,6.00
2023-03-15T09:36:18.473Z,6.00
2023-03-15T09:38:48.082Z,6.00
2023-03-15T09:41:43.084Z,10.50
2023-03-15T09:44:21.489Z,8.00
2023-03-15T09:47:34.720Z,4.00
2023-03-15T09:50:26.436Z,5.00
2023-03-15T09:53:05.300Z,7.00
2023-03-15T09:55:33.652Z,6.67
2023-03-15T09:58:11.495Z,7.00
2023-03-15T10:00:53.024Z,7.50
2023-03-15T10:03:27.377Z,8.33
2023-03-15T10:06:27.399Z,4.25
2023-03-15T10:08:58.541Z,2.25
2023-03-15T10:11:42.370Z,7.00
2023-03-15T10:14:20.079Z,6.25
2023-03-15T10:16:50.493Z,8.67
2023-03-15T10:19:21.331Z,7.00
2023-03-15T10:22:04.769Z,5.75
2023-03-15T10:25:16.597Z,10.67
2023-03-15T10:27:58.250Z,8.33
2023-03-15T10:30:31.545Z,6.75
2023-03-15T10:33:36.899Z,7.67
2023-03-15T10:36:20.228Z,5.00
2023-03-15T10:38:50.581Z,6.75
2023-03-15T10:41:31.168Z,8.00
2023-03-15T10:44:03.361Z,8.00
2023-03-15T10:46:31.709Z,6.00
2023-03-15T10:49:12.247Z,6.00
2023-03-15T10:51:45.951Z,6.67
2023-03-15T10:54:20.144Z,4.00
2023-03-15T10:56:48.414Z,7.00
2023-03-15T10:59:24.565Z,7.75
2023-03-15T11:01:54.917Z,7.25
2023-03-15T11:04:27.639Z,6.50
2023-03-15T11:06:55.856Z,5.33
2023-03-15T11:09:27.158Z,8.00
2023-03-15T11:11:57.539Z,5.67
2023-03-15T11:14:28.851Z,5.00
2023-03-15T11:16:59.533Z,8.00
2023-03-15T11:19:30.214Z,6.00
2023-03-15T11:22:00.445Z,4.00
2023-03-15T11:24:30.907Z,7.00
2023-03-15T11:27:02.717Z,6.75
2023-03-15T11:29:33.167Z,7.00
2023-03-15T11:32:04.312Z,6.67
2023-03-15T11:34:42.840Z,7.67
2023-03-15T11:37:23.769Z,5.75
2023-03-15T11:40:05.031Z,3.50
2023-03-15T11:43:17.593Z,5.25
2023-03-15T11:45:58.990Z,7.00
2023-03-15T11:48:41.226Z,4.00
2023-03-15T11:51:11.738Z,3.00
2023-03-15T11:53:49.131Z,6.50
2023-03-15T11:56:46.695Z,7.00
2023-03-15T11:59:21.742Z,7.33
2023-03-15T12:01:56.309Z,5.50
2023-03-15T12:04:34.053Z,5.00
2023-03-15T12:07:13.186Z,5.00
2023-03-15T12:09:52.618Z,7.50
2023-03-15T12:12:26.912Z,7.25
2023-03-15T12:15:20.015Z,6.33
2023-03-15T12:17:58.240Z,6.00
2023-03-15T12:20:39.761Z,6.25
2023-03-15T12:23:07.970Z,6.00
2023-03-15T12:25:48.914Z,6.50
2023-03-15T12:28:35.242Z,4.50
2023-03-15T12:31:07.022Z,6.00
2023-03-15T12:33:46.441Z,10.00
2023-03-15T12:36:35.399Z,6.00
2023-03-15T12:39:15.576Z,6.00
2023-03-15T12:41:47.557Z,7.00
2023-03-15T12:44:34.139Z,7.75
2023-03-15T12:47:04.843Z,6.00
2023-03-15T12:49:44.717Z,9.00
2023-03-15T12:52:14.327Z,6.33
2023-03-15T12:54:54.521Z,8.00
2023-03-15T12:57:28.287Z,6.67
2023-03-15T13:00:12.122Z,6.00
2023-03-15T13:02:55.502Z,7.33
2023-03-15T13:05:28.338Z,8.25
2023-03-15T13:07:59.581Z,9.75
2023-03-15T13:11:04.827Z,8.00
2023-03-15T13:14:00.549Z,5.33
2023-03-15T13:16:36.096Z,9.00
2023-03-15T13:19:14.515Z,7.00
2023-03-15T13:21:52.947Z,7.00
2023-03-15T13:24:32.377Z,7.00
2023-03-15T13:27:18.351Z,7.50
2023-03-15T13:29:46.742Z,7.00
2023-03-15T13:32:18.245Z,11.00
2023-03-15T13:34:47.386Z,7.67
2023-03-15T13:37:32.225Z,7.67
2023-03-15T13:40:02.792Z,9.33
2023-03-15T13:42:31.161Z,8.00
2023-03-15T13:45:16.478Z,7.67
2023-03-15T13:47:46.327Z,9.33
2023-03-15T13:50:20.418Z,8.00
2023-03-15T13:52:49.674Z,7.00
2023-03-15T13:55:23.364Z,7.75
2023-03-15T13:57:57.271Z,8.00
2023-03-15T14:00:26.791Z,8.75
2023-03-15T14:02:58.745Z,7.00
2023-03-15T14:05:29.317Z,8.25
2023-03-15T14:08:02.987Z,10.00
2023-03-15T14:10:33.824Z,9.00
2023-03-15T14:13:24.931Z,9.50
2023-03-15T14:16:05.990Z,8.75
2023-03-15T14:18:39.111Z,8.33
2023-03-15T14:21:17.311Z,9.33
2023-03-15T14:23:48.272Z,9.33
2023-03-15T14:26:30.263Z,9.25
2023-03-15T14:29:04.377Z,6.67
2023-03-15T14:31:35.828Z,5.75
2023-03-15T14:34:33.888Z,5.00
2023-03-15T14:37:07.696Z,6.00
2023-03-15T14:39:41.942Z,8.50
2023-03-15T14:42:12.311Z,8.00
2023-03-15T14:44:40.515Z,7.25
2023-03-15T14:47:16.545Z,8.50
2023-03-15T14:49:44.953Z,7.75
2023-03-15T14:52:14.257Z,7.00
2023-03-15T14:54:51.743Z,8.00
2023-03-15T14:57:20.021Z,8.00
2023-03-15T14:59:50.461Z,8.00
2023-03-15T15:02:18.989Z,5.50
2023-03-15T15:04:48.643Z,7.75
2023-03-15T15:07:18.662Z,7.25
2023-03-15T15:09:50.930Z,8.75
2023-03-15T15:12:19.638Z,8.50
2023-03-15T15:14:48.143Z,6.75
2023-03-15T15:17:16.581Z,5.00
2023-03-15T15:19:46.964Z,9.00
2023-03-15T15:22:15.489Z,8.00
2023-03-15T15:24:44.998Z,9.33
2023-03-15T15:27:14.191Z,8.50
2023-03-15T15:29:42.478Z,12.00
2023-03-15T15:32:10.948Z,9.25
2023-03-15T15:34:41.171Z,10.00
2023-03-15T15:40:29.912Z,9.75
2023-03-15T15:42:59.077Z,9.00
2023-03-15T15:45:27.441Z,15.00
2023-03-15T15:47:56.214Z,13.50
2023-03-15T15:50:24.898Z,13.00
2023-03-15T15:52:53.588Z,9.50
2023-03-15T15:55:26.264Z,8.00
2023-03-15T15:57:55.158Z,12.00
2023-03-15T16:00:28.142Z,10.00
2023-03-15T16:02:58.189Z,11.00
2023-03-15T16:05:28.249Z,11.50
2023-03-15T16:07:57.276Z,7.00
2023-03-15T16:10:30.583Z,10.50
2023-03-15T16:12:59.073Z,8.67
2023-03-15T16:15:27.504Z,9.00
2023-03-15T16:17:56.225Z,12.00
2023-03-15T16:20:25.051Z,8.33
2023-03-15T16:22:58.700Z,11.00
2023-03-15T16:25:33.719Z,8.00
2023-03-15T16:28:03.764Z,11.00
2023-03-15T16:30:33.478Z,9.50
2023-03-15T16:33:01.896Z,11.00
2023-03-15T16:35:36.233Z,9.00
2023-03-15T16:38:06.500Z,10.00
2023-03-15T16:40:36.325Z,10.00
2023-03-15T16:43:06.608Z,10.00
2023-03-15T16:45:34.917Z,12.00
2023-03-15T16:48:03.705Z,9.33
2023-03-15T16:50:32.817Z,11.00
2023-03-15T16:53:05.405Z,11.50
2023-03-15T16:55:34.379Z,14.00
2023-03-15T16:58:05.274Z,14.00
2023-03-15T17:00:33.488Z,17.67
2023-03-15T17:03:01.913Z,12.00
2023-03-15T17:05:32.594Z,14.50
2023-03-15T17:08:01.308Z,14.00
2023-03-15T17:10:31.576Z,17.00
2023-03-15T17:13:01.643Z,13.00
2023-03-15T17:15:30.971Z,10.33
2023-03-15T17:17:59.427Z,15.00
2023-03-15T17:20:28.815Z,13.00
2023-03-15T17:23:03.956Z,12.00
2023-03-15T17:25:34.287Z,13.00
2023-03-15T17:28:03.093Z,12.00
2023-03-15T17:30:33.927Z,11.67
2023-03-15T17:33:02.568Z,14.00
2023-03-15T17:35:34.466Z,9.00
2023-03-15T17:38:05.006Z,9.00
2023-03-15T17:40:35.885Z,10.00
2023-03-15T17:43:04.917Z,11.00
2023-03-15T17:45:34.967Z,11.50
2023-03-15T17:48:03.225Z,12.00
2023-03-15T17:50:33.133Z,13.00
2023-03-15T17:53:17.903Z,13.67
2023-03-15T17:55:48.212Z,10.00
2023-03-15T17:58:21.917Z,13.50
2023-03-15T18:00:52.875Z,16.00
2023-03-15T18:03:22.587Z,11.00
2023-03-15T18:05:51.068Z,13.00
2023-03-15T18:08:21.598Z,9.00
2023-03-15T18:10:52.322Z,8.00
2023-03-15T18:13:21.801Z,10.00
2023-03-15T18:15:51.510Z,12.00
2023-03-15T18:22:25.775Z,12.00
2023-03-15T18:24:54.259Z,13.00
2023-03-15T18:27:22.642Z,8.00
2023-03-15T18:29:52.965Z,10.00
2023-03-15T18:32:21.347Z,10.33
2023-03-15T18:34:49.720Z,10.00
2023-03-15T18:37:18.204Z,9.50
2023-03-15T18:39:46.600Z,11.00
2023-03-15T18:42:15.062Z,12.00
2023-03-15T18:44:44.366Z,8.00
2023-03-15T18:47:12.648Z,9.50
2023-03-15T18:49:41.022Z,7.00
2023-03-15T18:52:11.643Z,8.50
2023-03-15T18:54:40.128Z,6.00
2023-03-15T18:57:08.439Z,10.50
2023-03-15T18:59:36.893Z,8.00
2023-03-15T19:02:05.398Z,8.00
2023-03-15T19:04:33.780Z,12.67
2023-03-15T19:07:02.234Z,8.00
2023-03-15T19:09:30.812Z,9.00
2023-03-15T19:11:59.146Z,9.00
2023-03-15T19:14:27.676Z,10.00
2023-03-15T19:16:56.065Z,8.00
2023-03-15T19:19:24.541Z,9.00
2023-03-15T19:21:53.120Z,11.00
2023-03-15T19:26:49.678Z,11.67
2023-03-15T19:29:18.056Z,9.00
2023-03-15T19:31:46.560Z,6.67
2023-03-15T19:34:14.915Z,10.00
2023-03-15T19:36:45.241Z,10.00
2023-03-15T19:39:14.131Z,11.00
2023-03-15T19:41:43.058Z,7.50
2023-03-15T19:44:11.919Z,12.00
2023-03-15T19:46:40.257Z,6.75
2023-03-15T19:49:08.914Z,7.50
2023-03-15T19:51:37.569Z,7.00
2023-03-15T19:54:06.066Z,11.50
2023-03-15T19:56:34.430Z,12.00
2023-03-15T19:59:03.526Z,12.00
2023-03-15T20:01:32.688Z,12.50
2023-03-15T20:04:01.264Z,10.00
2023-03-15T20:06:29.881Z,10.50
2023-03-15T20:08:58.472Z,10.00
2023-03-15T20:11:29.539Z,14.00
2023-03-15T20:13:57.794Z,10.50
2023-03-15T20:16:26.372Z,7.00
2023-03-15T20:18:56.294Z,15.00
2023-03-15T20:21:24.782Z,13.00
2023-03-15T20:23:53.366Z,13.67
2023-03-15T20:26:24.097Z,11.00
2023-03-15T20:28:52.372Z,10.00
2023-03-15T20:31:21.981Z,12.00
2023-03-15T20:33:51.190Z,12.00
2023-03-15T20:36:19.462Z,11.00
2023-03-15T20:38:48.366Z,16.00
2023-03-15T20:41:18.531Z,14.00
2023-03-15T20:43:46.817Z,12.67
2023-03-15T20:46:17.167Z,10.50
2023-03-15T20:48:45.756Z,16.50
2023-03-15T20:51:13.933Z,10.00
2023-03-15T20:53:42.317Z,10.67
2023-03-15T20:56:10.993Z,5.75
2023-03-15T20:58:39.270Z,9.00
2023-03-15T21:01:09.569Z,11.00
2023-03-15T21:03:37.959Z,11.67
2023-03-15T21:06:07.184Z,18.00
2023-03-15T21:08:35.904Z,11.50
2023-03-15T21:11:06.229Z,11.00
2023-03-15T21:13:35.489Z,11.00
2023-03-15T21:16:05.064Z,10.50
2023-03-15T21:18:36.244Z,9.00
2023-03-15T21:21:07.552Z,10.00
2023-03-15T21:23:36.286Z,12.50
2023-03-15T21:26:07.672Z,9.50
2023-03-15T21:28:36.821Z,13.50
2023-03-15T21:31:06.524Z,12.50
2023-03-15T21:33:35.422Z,8.00
2023-03-15T21:36:04.172Z,9.00
2023-03-15T21:38:34.034Z,11.00
2023-03-15T21:41:06.926Z,10.00
2023-03-15T21:43:36.403Z,11.50
2023-03-15T21:46:07.722Z,11.00
2023-03-15T21:48:37.273Z,10.33
2023-03-15T21:51:07.574Z,10.00
2023-03-15T21:53:36.786Z,9.50
2023-03-15T21:56:05.514Z,12.00
2023-03-15T21:58:33.850Z,11.00
2023-03-15T22:01:08.017Z,8.00
2023-03-15T22:03:37.063Z,11.00
2023-03-15T22:06:05.727Z,11.00
2023-03-15T22:08:34.537Z,11.00
2023-03-15T22:11:04.815Z,13.00
2023-03-15T22:13:33.340Z,13.50
2023-03-15T22:16:01.825Z,11.00
2023-03-15T22:18:30.233Z,10.00
2023-03-15T22:20:58.598Z,12.00
2023-03-15T22:23:28.197Z,11.00
2023-03-15T22:25:57.411Z,10.00
2023-03-15T22:28:25.709Z,8.50
2023-03-15T22:30:54.183Z,14.00
2023-03-15T22:33:23.266Z,10.00
2023-03-15T22:35:58.531Z,13.00
2023-03-15T22:38:27.200Z,9.50
2023-03-15T22:41:09.081Z,10.00
2023-03-15T22:43:39.228Z,7.00
2023-03-15T22:46:07.992Z,11.00
2023-03-15T22:48:36.361Z,9.00
2023-03-15T22:51:07.377Z,8.33
2023-03-15T22:53:35.688Z,10.00
2023-03-15T22:56:05.299Z,10.00
2023-03-15T22:58:33.974Z,9.67
2023-03-15T23:01:02.790Z,9.00
2023-03-15T23:03:31.371Z,9.67
2023-03-15T23:05:59.728Z,14.00
2023-03-15T23:08:28.314Z,12.00
2023-03-15T23:10:58.765Z,13.00
2023-03-15T23:13:27.032Z,10.00
2023-03-15T23:15:55.612Z,13.00
2023-03-15T23:18:24.087Z,9.33
2023-03-15T23:20:52.672Z,8.00
2023-03-15T23:23:21.054Z,9.00
2023-03-15T23:25:51.068Z,7.33
2023-03-15T23:28:21.913Z,9.00
2023-03-15T23:30:50.630Z,8.50
2023-03-15T23:33:18.877Z,9.00
2023-03-15T23:35:47.171Z,10.50
2023-03-15T23:38:15.525Z,9.00
2023-03-15T23:40:44.422Z,11.67
2023-03-15T23:43:12.697Z,12.00
2023-03-15T23:45:41.799Z,12.00
2023-03-15T23:48:10.791Z,9.00
2023-03-15T23:50:39.271Z,11.50
2023-03-15T23:53:07.959Z,6.00
2023-03-15T23:55:36.440Z,9.00
2023-03-15T23:58:06.970Z,9.00
